Fontainebleau, Mississippi
Current Conditions -  °F | °C
As of 5:58 PM on Saturday 20 Dec 2014 (Local Time) from KBIX Reporting Station
Overcast Overcast  
Wind Chill: 52°   Ceiling: 1100
Heat Index: 52°   Visibility: 10mi
Dew Point: 49°   Wind: 10mph
Humidity: 90%   Direction: 20°NNE
Pressure: 30.13"   Gusts: NA
Location:  30.418°N, 88.7558°W
Report Text: KBIX 202358Z AUTO 02009KT 10SM OVC011 11/09 A3013 RMK AO2 SLP206 T01100094 10114 20106 52009
Loading
Personal Weather Stations






























Interactive Weather Map New forecast layout! Learn more

10-Day Weather Forecast

Advertisements
Track Severe Weather on mobile